Time;durP1;ratioP1;P1;durP2;ratioP2;P2;SDS_P1;SDS_P2;PMS_P1;PMS_P2;Temp;Humidity;BMP_temperature;BMP_pressure;BME280_temperature;BME280_humidity;BME280_pressure;Samples;Min_cycle;Max_cycle;Signal;HPM_P1;HPM_P2
2023/03/11 00:00:24;;;;;;;5.25;1.70;;;;;;;1.23;100.00;98704.19;12194772;19;20029;-80
2023/03/11 00:04:25;;;;;;;2.67;1.60;;;;;;;1.21;100.00;98709.00;12210999;19;20027;-80
2023/03/11 00:08:27;;;;;;;2.65;1.20;;;;;;;1.16;100.00;98689.84;12213166;19;20044;-79
2023/03/11 00:12:29;;;;;;;1.52;1.10;;;;;;;1.12;100.00;98683.16;12193161;19;20337;-79
2023/03/11 00:16:30;;;;;;;1.83;1.20;;;;;;;1.06;100.00;98694.88;12212619;19;20026;-82
2023/03/11 00:20:35;;;;;;;2.25;1.25;;;;;;;1.04;100.00;98705.09;12214716;19;20026;-80
2023/03/11 00:24:37;;;;;;;2.85;1.20;;;;;;;1.06;100.00;98705.72;12188193;19;19996;-80
2023/03/11 00:28:38;;;;;;;1.70;1.17;;;;;;;1.01;100.00;98706.38;12212965;19;20010;-80
2023/03/11 00:32:43;;;;;;;1.35;0.82;;;;;;;1.03;100.00;98715.13;12211016;19;20492;-80
2023/03/11 00:36:45;;;;;;;1.00;0.63;;;;;;;1.04;100.00;98716.81;12195850;19;20007;-80
2023/03/11 00:40:47;;;;;;;1.23;0.70;;;;;;;1.07;100.00;98731.81;12256806;19;20017;-82
2023/03/11 00:44:49;;;;;;;2.63;0.70;;;;;;;1.08;100.00;98739.75;12251154;19;20002;-82
2023/03/11 00:48:50;;;;;;;1.35;0.73;;;;;;;1.06;100.00;98741.00;12192765;19;20176;-80
2023/03/11 00:52:52;;;;;;;1.45;0.70;;;;;;;1.09;100.00;98735.13;12211839;19;20042;-82
2023/03/11 00:56:54;;;;;;;2.28;0.45;;;;;;;1.12;100.00;98743.69;12210805;19;20512;-80
2023/03/11 01:00:56;;;;;;;3.47;0.50;;;;;;;1.20;100.00;98756.19;12189013;19;20445;-81
2023/03/11 01:04:57;;;;;;;0.73;0.50;;;;;;;1.23;100.00;98772.03;12207768;19;19999;-81
2023/03/11 01:09:07;;;;;;;2.70;0.60;;;;;;;1.29;100.00;98775.78;12266270;19;20889;-80
2023/03/11 01:13:10;;;;;;;1.02;0.60;;;;;;;1.35;100.00;98792.03;12239836;19;20014;-81
2023/03/11 01:17:11;;;;;;;3.13;0.80;;;;;;;1.40;99.70;98791.38;12265203;19;19998;-81
2023/03/11 01:21:13;;;;;;;0.63;0.60;;;;;;;1.49;99.95;98783.84;12266629;19;20014;-81
2023/03/11 01:25:18;;;;;;;1.10;0.50;;;;;;;1.52;96.97;98769.81;12241638;19;20003;-80
2023/03/11 01:29:19;;;;;;;2.10;0.60;;;;;;;1.55;96.28;98767.50;12261230;19;20905;-82
2023/03/11 01:33:21;;;;;;;1.50;0.50;;;;;;;1.63;93.39;98760.13;12240774;19;20049;-80
2023/03/11 01:37:23;;;;;;;1.70;0.50;;;;;;;1.67;92.11;98756.78;12267945;19;20046;-80
2023/03/11 01:41:24;;;;;;;1.38;0.57;;;;;;;1.70;89.34;98758.25;12266661;19;20077;-82
2023/03/11 01:45:38;;;;;;;1.42;0.70;;;;;;;1.75;90.95;98767.38;12243290;19;20007;-81
2023/03/11 01:49:40;;;;;;;4.57;0.68;;;;;;;1.77;91.44;98773.44;12266739;19;20007;-78
2023/03/11 01:53:42;;;;;;;3.87;1.20;;;;;;;1.73;92.00;98776.81;12260818;19;20073;-79
2023/03/11 01:57:46;;;;;;;1.10;0.47;;;;;;;1.88;91.11;98792.81;12243119;19;20010;-81
2023/03/11 02:01:57;;;;;;;3.22;1.08;;;;;;;1.83;92.39;98799.72;12264169;19;20116;-80
2023/03/11 02:06:02;;;;;;;1.20;0.68;;;;;;;1.86;92.81;98808.47;12263613;19;20022;-79
2023/03/11 02:10:06;;;;;;;0.93;0.60;;;;;;;1.86;93.92;98808.47;12242405;19;20037;-79
2023/03/11 02:14:08;;;;;;;2.85;0.63;;;;;;;1.87;94.28;98810.13;12270442;19;20002;-82
2023/03/11 02:18:13;;;;;;;6.55;0.75;;;;;;;1.81;94.69;98801.84;12285982;19;20007;-85
2023/03/11 02:22:16;;;;;;;1.30;0.70;;;;;;;1.78;94.99;98799.53;12253104;19;20006;-84
2023/03/11 02:26:29;;;;;;;2.88;0.57;;;;;;;1.82;95.19;98806.22;12239745;19;20003;-83
2023/03/11 02:30:33;;;;;;;5.35;0.90;;;;;;;1.80;95.37;98800.16;12181299;19;20003;-79
2023/03/11 02:34:38;;;;;;;5.68;0.90;;;;;;;1.81;95.86;98799.13;12205998;19;20034;-80
2023/03/11 02:38:40;;;;;;;3.70;0.73;;;;;;;1.79;96.36;98794.94;12208760;19;20006;-80
2023/03/11 02:42:42;;;;;;;1.48;0.70;;;;;;;1.81;96.42;98795.53;12186690;19;20039;-79
2023/03/11 02:46:45;;;;;;;1.50;0.80;;;;;;;1.79;96.75;98790.34;12205634;19;21199;-81
2023/03/11 02:50:47;;;;;;;;;;;;;;;1.74;96.56;98792.88;12209821;19;20010;-80
2023/03/11 02:54:52;;;;;;;3.72;1.02;;;;;;;1.68;96.92;98801.91;12182850;19;19906;-81
2023/03/11 02:58:54;;;;;;;2.80;0.73;;;;;;;1.67;97.46;98813.81;12208431;19;20022;-82
2023/03/11 03:02:56;;;;;;;2.43;0.93;;;;;;;1.66;97.49;98812.13;12204950;19;20028;-80
2023/03/11 03:06:59;;;;;;;7.97;1.17;;;;;;;1.64;97.97;98830.53;12186273;19;20370;-80
2023/03/11 03:11:02;;;;;;;1.50;0.93;;;;;;;1.70;97.50;98826.13;12206208;19;20003;-80
2023/03/11 03:15:04;;;;;;;3.20;1.58;;;;;;;1.75;96.87;98827.13;12206336;19;20638;-80
2023/03/11 03:19:06;;;;;;;4.55;1.10;;;;;;;1.77;97.03;98824.19;12185665;19;20002;-84
2023/03/11 03:23:08;;;;;;;4.30;1.00;;;;;;;1.75;97.28;98832.56;12206584;19;20006;-81
2023/03/11 03:27:10;;;;;;;3.55;1.10;;;;;;;1.80;97.36;98829.19;12203229;19;20018;-80
2023/03/11 03:31:14;;;;;;;6.38;1.25;;;;;;;1.79;97.64;98836.53;12180038;19;20010;-79
2023/03/11 03:35:17;;;;;;;4.70;0.98;;;;;;;1.85;97.83;98842.16;12201435;19;20062;-81
2023/03/11 03:39:33;;;;;;;4.32;1.00;;;;;;;1.89;96.83;98855.06;12184898;19;20030;-82
2023/03/11 03:43:36;;;;;;;3.70;1.00;;;;;;;1.89;97.07;98849.63;12204447;19;20086;-81
2023/03/11 03:47:38;;;;;;;3.20;0.90;;;;;;;1.81;97.41;98848.00;12203950;19;20372;-81
2023/03/11 03:51:40;;;;;;;3.95;1.50;;;;;;;1.66;98.01;98852.88;12184227;19;20252;-83
2023/03/11 03:55:53;;;;;;;5.90;0.77;;;;;;;1.53;98.63;98861.09;12207007;19;20034;-81
2023/03/11 03:59:55;;;;;;;5.95;1.00;;;;;;;1.42;99.18;98854.44;12205264;19;20051;-83
2023/03/11 04:03:57;;;;;;;1.55;1.05;;;;;;;1.38;99.59;98857.78;12183404;19;20095;-82
2023/03/11 04:07:59;;;;;;;3.17;1.10;;;;;;;1.32;99.87;98852.16;12208064;19;20007;-82
2023/03/11 04:12:02;;;;;;;3.40;0.90;;;;;;;1.31;100.00;98861.38;12204241;19;20054;-82
2023/03/11 04:16:07;;;;;;;3.72;1.20;;;;;;;1.33;100.00;98867.41;12179736;19;20337;-81
2023/03/11 04:20:10;;;;;;;1.92;0.90;;;;;;;1.36;100.00;98872.41;12202842;19;20081;-82
2023/03/11 04:24:12;;;;;;;2.90;0.90;;;;;;;1.41;100.00;98879.09;12198480;19;20082;-81
2023/03/11 04:28:15;;;;;;;4.72;1.20;;;;;;;1.42;100.00;98878.84;12180088;19;20401;-80
2023/03/11 04:32:18;;;;;;;4.18;1.25;;;;;;;1.40;100.00;98878.25;12202261;19;20093;-83
2023/03/11 04:36:20;;;;;;;3.58;0.93;;;;;;;1.35;100.00;98881.59;12180116;19;21176;-81
2023/03/11 04:40:23;;;;;;;3.50;1.15;;;;;;;1.35;100.00;98886.19;12202376;19;20002;-81
2023/03/11 04:44:25;;;;;;;6.40;1.50;;;;;;;1.35;100.00;98892.44;12196876;19;20002;-83
2023/03/11 04:48:27;;;;;;;4.07;0.82;;;;;;;1.40;100.00;98905.41;12176321;19;20354;-80
2023/03/11 04:52:29;;;;;;;2.63;1.00;;;;;;;1.45;100.00;98891.16;12200919;19;20006;-82
2023/03/11 04:56:31;;;;;;;7.00;1.73;;;;;;;1.45;100.00;98894.72;12199347;19;20010;-83
2023/03/11 05:00:33;;;;;;;2.57;0.67;;;;;;;1.46;100.00;98903.69;12178421;19;20007;-83
2023/03/11 05:04:39;;;;;;;1.23;0.70;;;;;;;1.42;100.00;98907.88;12197853;19;20401;-81
2023/03/11 05:08:41;;;;;;;4.70;1.15;;;;;;;1.42;100.00;98903.28;12204849;19;20010;-83
2023/03/11 05:12:43;;;;;;;3.20;1.27;;;;;;;1.49;100.00;98911.44;12182817;19;20007;-82
2023/03/11 05:16:45;;;;;;;8.07;1.77;;;;;;;1.52;100.00;98913.72;12208114;19;20346;-80
2023/03/11 05:20:46;;;;;;;4.15;1.08;;;;;;;1.58;100.00;98912.88;12231539;19;20006;-83
2023/03/11 05:24:49;;;;;;;3.17;1.40;;;;;;;1.57;100.00;98913.91;12235113;19;19999;-84
2023/03/11 05:28:51;;;;;;;8.57;1.42;;;;;;;1.45;100.00;98930.00;12209136;19;20059;-82
2023/03/11 05:32:55;;;;;;;7.30;1.33;;;;;;;1.27;100.00;98933.38;12201760;19;20027;-81
2023/03/11 05:36:58;;;;;;;2.53;1.20;;;;;;;1.22;100.00;98951.34;12179746;19;20003;-81
2023/03/11 05:41:03;;;;;;;7.85;1.55;;;;;;;1.35;100.00;98945.91;12199548;19;20606;-82
2023/03/11 05:45:05;;;;;;;2.72;1.40;;;;;;;1.43;100.00;98942.13;12199800;19;20002;-82
2023/03/11 05:49:08;;;;;;;;;;;;;;;1.40;100.00;98942.53;12173676;19;20011;-82
2023/03/11 05:53:10;;;;;;;4.20;1.30;;;;;;;1.35;100.00;98949.47;12198985;19;19930;-82
2023/03/11 05:57:11;;;;;;;5.93;1.40;;;;;;;1.24;100.00;98949.25;12210098;19;20463;-82
2023/03/11 06:01:15;;;;;;;3.58;1.58;;;;;;;1.14;100.00;98953.25;12189553;19;20014;-82
2023/03/11 06:05:17;;;;;;;6.78;1.70;;;;;;;1.08;100.00;98954.09;12205920;19;20654;-81
2023/03/11 06:09:21;;;;;;;4.55;1.33;;;;;;;1.02;100.00;98954.09;12186857;19;20006;-82
2023/03/11 06:13:27;;;;;;;2.72;1.30;;;;;;;0.93;100.00;98958.88;12204713;19;20006;-81
2023/03/11 06:17:29;;;;;;;2.47;1.50;;;;;;;0.87;100.00;98960.56;12207134;19;20066;-81
2023/03/11 06:21:33;;;;;;;4.50;1.52;;;;;;;0.82;100.00;98976.59;12186403;19;20022;-81
2023/03/11 06:25:34;;;;;;;8.18;1.27;;;;;;;0.78;100.00;98975.34;12207431;19;20014;-82
2023/03/11 06:29:36;;;;;;;3.13;1.37;;;;;;;0.79;100.00;98979.72;12204371;19;20010;-81
2023/03/11 06:33:38;;;;;;;6.72;2.10;;;;;;;0.80;100.00;98975.13;12181343;19;20132;-83
2023/03/11 06:37:41;;;;;;;;;;;;;;;0.79;100.00;98990.56;12184443;19;20038;-82
2023/03/11 06:41:43;;;;;;;5.55;1.30;;;;;;;0.84;100.00;98998.94;12211299;19;19914;-82
2023/03/11 06:45:46;;;;;;;4.05;1.60;;;;;;;0.88;100.00;99011.03;12187108;19;20015;-82
2023/03/11 06:49:49;;;;;;;3.83;1.58;;;;;;;0.91;100.00;99016.03;12211145;19;20025;-81
2023/03/11 06:53:52;;;;;;;;;;;;;;;0.91;100.00;99016.03;12213926;19;20505;-81
2023/03/11 06:57:55;;;;;;;6.75;1.50;;;;;;;0.97;100.00;99025.22;12172346;19;20017;-81
2023/03/11 07:01:57;;;;;;;4.47;1.63;;;;;;;1.07;100.00;99035.66;12209012;19;21206;-82
2023/03/11 07:05:59;;;;;;;4.30;1.60;;;;;;;1.16;100.00;99034.44;12210233;19;20086;-82
2023/03/11 07:10:01;;;;;;;6.03;1.55;;;;;;;1.25;100.00;99040.47;12168612;19;20384;-81
2023/03/11 07:14:04;;;;;;;;;;;;;;;1.32;100.00;99055.75;12210240;19;20053;-83
2023/03/11 07:18:09;;;;;;;5.28;1.50;;;;;;;1.48;100.00;99056.34;12214812;19;20604;-82
2023/03/11 07:22:11;;;;;;;4.13;1.37;;;;;;;1.64;100.00;99057.84;12190102;19;20015;-81
2023/03/11 07:26:14;;;;;;;5.63;1.60;;;;;;;1.73;100.00;99060.09;12212690;19;20002;-81
2023/03/11 07:30:16;;;;;;;;;;;;;;;1.73;100.00;99062.81;12209825;19;20038;-83
2023/03/11 07:34:20;;;;;;;5.33;1.43;;;;;;;1.87;100.00;99073.66;12217010;19;20762;-83
2023/03/11 07:38:22;;;;;;;6.68;1.40;;;;;;;1.99;100.00;99077.38;12218413;19;20280;-84
2023/03/11 07:42:24;;;;;;;5.43;2.70;;;;;;;1.98;100.00;99089.31;12198034;19;20581;-82
2023/03/11 07:46:28;;;;;;;4.30;1.33;;;;;;;2.09;100.00;99099.53;12219643;19;20007;-81
2023/03/11 07:50:30;;;;;;;;;;;;;;;2.25;100.00;99099.06;12226405;19;20751;-82
2023/03/11 07:54:32;;;;;;;4.30;1.50;;;;;;;2.37;98.82;99110.13;12227639;19;19945;-82
2023/03/11 07:58:34;;;;;;;3.17;1.17;;;;;;;2.47;95.47;99117.84;12263510;19;20003;-82
2023/03/11 08:02:40;;;;;;;6.15;1.65;;;;;;;2.60;93.16;99133.28;12267953;19;20006;-82
2023/03/11 08:06:44;;;;;;;5.57;1.58;;;;;;;2.67;91.26;99124.03;12239647;19;19994;-85
2023/03/11 08:10:46;;;;;;;3.30;1.27;;;;;;;2.84;89.21;99145.31;12251692;19;20330;-83
2023/03/11 08:14:47;;;;;;;5.20;1.17;;;;;;;3.00;85.86;99139.38;12235438;19;20077;-84
2023/03/11 08:18:51;;;;;;;5.28;1.30;;;;;;;3.03;83.79;99143.53;12227624;19;20003;-84
2023/03/11 08:22:53;;;;;;;6.68;1.65;;;;;;;3.26;84.65;99141.13;12267414;19;19998;-84
2023/03/11 08:26:59;;;;;;;5.68;2.00;;;;;;;3.58;84.80;99143.84;12248478;19;20015;-82
2023/03/11 08:31:01;;;;;;;3.70;1.23;;;;;;;3.83;83.27;99150.13;12193854;19;20003;-81
2023/03/11 08:35:03;;;;;;;7.43;2.17;;;;;;;3.86;81.52;99149.69;12214964;19;20017;-81
2023/03/11 08:39:05;;;;;;;2.30;1.20;;;;;;;4.04;78.47;99158.97;12214111;19;20014;-82
2023/03/11 08:43:10;;;;;;;;;;;;;;;4.22;71.20;99163.63;12190468;19;20009;-82
2023/03/11 08:47:12;;;;;;;8.48;1.58;;;;;;;4.21;70.88;99161.97;12213521;19;20073;-81
2023/03/11 08:51:14;;;;;;;5.23;1.20;;;;;;;4.59;72.48;99174.59;12221525;19;20305;-81
2023/03/11 08:55:23;;;;;;;6.45;1.08;;;;;;;5.01;71.13;99172.84;12202093;19;20042;-81
2023/03/11 08:59:25;;;;;;;6.78;1.40;;;;;;;4.85;64.78;99182.50;12220923;19;20081;-82
2023/03/11 09:03:30;;;;;;;3.83;1.15;;;;;;;4.42;65.29;99175.19;12195399;19;20006;-82
2023/03/11 09:07:32;;;;;;;6.00;1.15;;;;;;;4.19;65.83;99186.72;12220907;19;20511;-81
2023/03/11 09:11:36;;;;;;;6.13;1.20;;;;;;;3.98;66.30;99187.13;12215835;19;20507;-81
2023/03/11 09:15:38;;;;;;;5.60;1.08;;;;;;;4.28;66.92;99177.22;12200273;19;20081;-81
2023/03/11 09:19:40;;;;;;;4.00;0.93;;;;;;;5.01;67.92;99179.13;12216810;19;20157;-81
2023/03/11 09:23:42;;;;;;;4.47;0.98;;;;;;;5.64;64.89;99171.56;12213790;19;20044;-81
2023/03/11 09:27:44;;;;;;;;;;;;;;;5.38;58.48;99170.88;12196397;19;20101;-81
2023/03/11 09:31:46;;;;;;;3.10;1.17;;;;;;;4.90;61.61;99176.34;12230070;19;19928;-81
2023/03/11 09:35:48;;;;;;;2.65;0.90;;;;;;;4.69;61.53;99173.00;12228752;19;20353;-81
2023/03/11 09:39:50;;;;;;;3.58;1.20;;;;;;;4.42;59.20;99190.72;12200405;19;20605;-82
2023/03/11 09:44:09;;;;;;;4.57;1.20;;;;;;;4.69;61.59;99180.34;12225724;19;20002;-81
2023/03/11 09:48:36;;;;;;;2.13;1.10;;;;;;;5.62;58.96;99180.00;12221900;19;20003;-81
2023/03/11 09:52:57;;;;;;;1.70;0.90;;;;;;;5.72;54.42;99176.69;12201382;19;20757;-81
2023/03/11 09:57:01;;;;;;;3.13;1.02;;;;;;;5.59;55.80;99175.00;12225501;19;20020;-82
2023/03/11 10:01:23;;;;;;;4.70;1.13;;;;;;;5.48;56.21;99179.34;12211280;19;20471;-81
2023/03/11 10:05:27;;;;;;;5.95;1.20;;;;;;;5.65;56.47;99185.00;12265199;19;20055;-82
2023/03/11 10:09:47;;;;;;;3.78;1.00;;;;;;;5.49;55.35;99186.47;12241664;19;20010;-82
2023/03/11 10:13:59;;;;;;;5.38;1.20;;;;;;;5.38;57.42;99184.53;12241347;19;20011;-82
2023/03/11 10:18:27;;;;;;;10.60;1.33;;;;;;;5.32;55.61;99190.91;12238987;19;20015;-81
2023/03/11 10:22:47;;;;;;;2.42;0.90;;;;;;;5.55;55.20;99195.66;12204734;19;20030;-82
2023/03/11 10:26:53;;;;;;;5.30;1.20;;;;;;;5.72;55.17;99195.84;12229947;19;20010;-82
2023/03/11 10:31:02;;;;;;;4.25;1.27;;;;;;;5.89;54.29;99199.56;12205978;19;20015;-83
2023/03/11 10:35:19;;;;;;;3.97;1.27;;;;;;;5.71;52.38;99199.59;12225155;19;20024;-81
2023/03/11 10:39:22;;;;;;;5.22;1.13;;;;;;;5.50;55.36;99203.69;12207329;19;20078;-82
2023/03/11 10:43:26;;;;;;;6.70;1.45;;;;;;;5.58;56.12;99203.38;12227746;19;20744;-81
2023/03/11 10:47:28;;;;;;;5.75;1.48;;;;;;;5.53;55.61;99213.34;12225700;19;20003;-81
2023/03/11 10:51:33;;;;;;;3.80;0.90;;;;;;;5.38;54.77;99220.03;12206618;19;20046;-81
2023/03/11 10:55:45;;;;;;;5.68;1.05;;;;;;;5.49;55.41;99219.25;12224435;19;20014;-82
2023/03/11 10:59:50;;;;;;;3.15;0.80;;;;;;;5.68;55.70;99211.88;12222920;19;20066;-82
2023/03/11 11:03:54;;;;;;;5.75;0.98;;;;;;;5.81;54.44;99210.84;12201651;19;20023;-81
2023/03/11 11:08:11;;;;;;;3.72;1.00;;;;;;;5.91;53.41;99211.09;12224879;19;20042;-81
2023/03/11 11:12:16;;;;;;;1.52;0.85;;;;;;;6.03;52.29;99215.78;12226764;19;20020;-82
2023/03/11 11:16:20;;;;;;;4.35;1.35;;;;;;;6.08;52.92;99210.44;12203716;19;20030;-81
2023/03/11 11:20:23;;;;;;;5.25;1.15;;;;;;;6.27;53.91;99219.38;12225546;19;20014;-82
2023/03/11 11:24:28;;;;;;;4.82;1.33;;;;;;;6.61;53.74;99210.38;12200080;19;20002;-82
2023/03/11 11:28:32;;;;;;;9.52;3.33;;;;;;;6.85;52.84;99211.16;12226394;19;20499;-82
2023/03/11 11:32:34;;;;;;;5.78;2.55;;;;;;;7.07;51.41;99214.09;12232827;19;20016;-81
2023/03/11 11:36:37;;;;;;;4.93;1.10;;;;;;;7.18;49.82;99220.63;12227029;19;20012;-82
2023/03/11 11:40:39;;;;;;;4.35;1.98;;;;;;;7.47;46.57;99215.19;12230865;19;20689;-81
2023/03/11 11:44:42;;;;;;;5.18;1.70;;;;;;;7.49;47.16;99218.50;12227489;19;20598;-82
2023/03/11 11:48:55;;;;;;;2.38;0.88;;;;;;;7.58;47.68;99218.94;12205577;19;20096;-81
2023/03/11 11:53:23;;;;;;;2.55;1.17;;;;;;;7.43;45.99;99216.75;12223358;19;20017;-82
2023/03/11 11:57:25;;;;;;;5.32;2.03;;;;;;;7.33;46.95;99214.63;12201842;19;20107;-82
2023/03/11 12:01:52;;;;;;;1.58;0.80;;;;;;;7.14;45.33;99208.50;12230037;19;20519;-81
2023/03/11 12:06:23;;;;;;;3.92;0.93;;;;;;;6.96;45.17;99214.97;12237680;19;20048;-81
2023/03/11 12:10:48;;;;;;;2.28;0.93;;;;;;;7.00;44.85;99212.59;12209442;19;20889;-81
2023/03/11 12:15:24;;;;;;;3.50;0.73;;;;;;;7.28;44.18;99209.88;12230592;19;20044;-81
2023/03/11 12:19:41;;;;;;;2.92;0.90;;;;;;;7.56;42.83;99202.75;12210455;19;20015;-82
2023/03/11 12:24:28;;;;;;;3.25;1.02;;;;;;;7.80;42.27;99202.66;12219878;19;20026;-82
2023/03/11 12:28:52;;;;;;;2.08;0.80;;;;;;;8.49;42.24;99189.56;12207476;19;20010;-82
2023/03/11 12:33:06;;;;;;;2.78;1.00;;;;;;;9.42;40.94;99189.69;12234374;19;20018;-82
2023/03/11 12:37:13;;;;;;;5.65;1.35;;;;;;;9.76;40.55;99187.59;12219647;19;20032;-83
2023/03/11 12:41:15;;;;;;;2.75;0.90;;;;;;;9.78;39.63;99190.06;12226682;19;20011;-84
2023/03/11 12:45:58;;;;;;;5.25;1.10;;;;;;;10.79;39.75;99178.22;12211776;19;20062;-84
2023/03/11 12:50:18;;;;;;;;;;;;;;;11.86;37.32;99164.84;12218727;19;20082;-84
2023/03/11 12:54:26;;;;;;;3.83;1.58;;;;;;;13.30;36.86;99176.56;12187851;19;19990;-82
2023/03/11 12:58:35;;;;;;;5.93;1.35;;;;;;;13.43;33.88;99184.25;12214499;19;20381;-82
2023/03/11 13:02:56;;;;;;;5.03;1.00;;;;;;;12.34;35.88;99180.34;12210729;19;20011;-82
2023/03/11 13:07:32;;;;;;;8.05;1.25;;;;;;;11.11;34.50;99196.59;12193406;19;20029;-82
2023/03/11 13:11:44;;;;;;;2.67;1.02;;;;;;;9.91;37.10;99200.66;12215340;19;20003;-82
2023/03/11 13:15:46;;;;;;;2.53;1.25;;;;;;;9.27;36.82;99211.50;12197806;19;20048;-81
2023/03/11 13:19:55;;;;;;;6.85;1.17;;;;;;;8.32;38.30;99219.72;12224664;19;20070;-83
2023/03/11 13:24:24;;;;;;;1.95;1.10;;;;;;;7.52;40.39;99202.44;12216057;19;20010;-82
2023/03/11 13:28:35;;;;;;;4.95;1.17;;;;;;;7.21;41.19;99217.41;12197090;19;20025;-82
2023/03/11 13:32:49;;;;;;;2.60;1.08;;;;;;;6.98;42.53;99225.69;12218782;19;20007;-81
2023/03/11 13:37:19;;;;;;;4.65;1.27;;;;;;;6.74;42.83;99224.88;12189639;19;20006;-82
2023/03/11 13:41:30;;;;;;;5.72;1.30;;;;;;;6.80;42.50;99235.69;12217126;19;20030;-84
2023/03/11 13:45:35;;;;;;;2.55;1.00;;;;;;;6.62;42.53;99230.34;12198200;19;20014;-83
2023/03/11 13:49:44;;;;;;;1.80;0.98;;;;;;;6.46;43.24;99220.97;12224344;19;20014;-82
2023/03/11 13:53:55;;;;;;;5.95;1.58;;;;;;;6.33;43.80;99224.75;12263257;19;20007;-80
2023/03/11 13:57:57;;;;;;;3.13;1.02;;;;;;;6.56;43.54;99229.41;12220363;19;20965;-80
2023/03/11 14:02:07;;;;;;;3.05;0.90;;;;;;;6.80;43.57;99245.81;12216828;19;20011;-80
2023/03/11 14:06:15;;;;;;;5.40;1.52;;;;;;;6.74;43.51;99246.78;12207123;19;20019;-81
2023/03/11 14:10:22;;;;;;;4.57;0.93;;;;;;;6.70;43.33;99246.44;12182228;19;20006;-81
2023/03/11 14:14:55;;;;;;;4.43;1.02;;;;;;;6.73;43.58;99250.59;12205729;19;20006;-81
2023/03/11 14:19:04;;;;;;;4.13;1.05;;;;;;;6.73;42.79;99259.66;12195122;19;20003;-81
2023/03/11 14:23:16;;;;;;;3.17;1.02;;;;;;;6.56;42.73;99269.63;12212066;19;20035;-80
2023/03/11 14:27:18;;;;;;;;;;;;;;;6.21;43.15;99262.19;12193532;19;20430;-81
2023/03/11 14:31:32;;;;;;;5.68;1.10;;;;;;;6.11;43.15;99256.47;12216008;19;19906;-79
2023/03/11 14:35:34;;;;;;;5.53;1.38;;;;;;;6.09;44.10;99261.34;12220380;19;20006;-81
2023/03/11 14:39:42;;;;;;;7.10;1.10;;;;;;;6.05;44.08;99274.66;12198553;19;20022;-81
2023/03/11 14:43:49;;;;;;;4.78;1.05;;;;;;;6.17;43.12;99271.94;12216094;19;20006;-81
2023/03/11 14:48:03;;;;;;;4.43;1.42;;;;;;;6.06;44.36;99265.38;12216519;19;20022;-81
2023/03/11 14:52:15;;;;;;;4.55;0.90;;;;;;;6.19;43.47;99255.28;12228238;19;19999;-81
2023/03/11 14:56:23;;;;;;;4.80;1.15;;;;;;;6.16;44.64;99257.44;12263112;19;20023;-81
2023/03/11 15:00:43;;;;;;;4.75;1.40;;;;;;;6.32;44.04;99235.94;12219322;19;20002;-81
2023/03/11 15:04:46;;;;;;;2.40;0.90;;;;;;;6.63;44.08;99242.97;12228142;19;20014;-81
2023/03/11 15:08:58;;;;;;;4.53;1.23;;;;;;;6.99;43.47;99246.50;12221805;19;20026;-82
2023/03/11 15:13:22;;;;;;;3.92;1.00;;;;;;;7.10;42.74;99240.19;12195473;19;20251;-81
2023/03/11 15:17:27;;;;;;;2.50;1.10;;;;;;;7.23;43.61;99250.06;12217143;19;20003;-80
2023/03/11 15:21:45;;;;;;;3.13;1.15;;;;;;;7.32;43.73;99245.88;12194893;19;21220;-81
2023/03/11 15:25:49;;;;;;;3.38;1.30;;;;;;;7.21;42.74;99263.16;12212707;19;20002;-81
2023/03/11 15:29:51;;;;;;;2.78;1.50;;;;;;;7.05;42.85;99253.78;12212345;19;20013;-81
2023/03/11 15:33:55;;;;;;;2.40;1.15;;;;;;;6.93;42.91;99250.22;12195353;19;20007;-81
2023/03/11 15:38:20;;;;;;;3.85;1.05;;;;;;;6.85;43.80;99248.69;12210667;19;20006;-82
2023/03/11 15:42:24;;;;;;;3.78;1.42;;;;;;;6.92;43.85;99241.16;12193305;19;20019;-83
2023/03/11 15:46:25;;;;;;;2.65;1.20;;;;;;;6.83;43.28;99265.34;12213342;19;20070;-81
2023/03/11 15:50:27;;;;;;;7.07;1.40;;;;;;;6.80;43.38;99268.56;12221643;19;20006;-83
2023/03/11 15:54:49;;;;;;;4.35;1.20;;;;;;;6.54;43.26;99271.75;12193535;19;20003;-81
2023/03/11 15:58:56;;;;;;;2.30;0.98;;;;;;;6.34;43.48;99259.25;12217854;19;20014;-81
2023/03/11 16:02:58;;;;;;;3.33;1.10;;;;;;;6.17;44.11;99269.22;12217015;19;20021;-81
2023/03/11 16:06:59;;;;;;;4.85;1.13;;;;;;;6.02;43.87;99274.28;12191937;19;20006;-80
2023/03/11 16:11:13;;;;;;;4.70;1.17;;;;;;;5.83;44.54;99287.13;12210696;19;20003;-83
2023/03/11 16:15:27;;;;;;;2.13;0.90;;;;;;;5.67;45.27;99288.63;12213336;19;20718;-81
2023/03/11 16:19:29;;;;;;;6.03;1.30;;;;;;;5.63;44.97;99298.38;12203019;19;20016;-81
2023/03/11 16:23:35;;;;;;;6.65;1.33;;;;;;;5.60;45.10;99290.63;12231155;19;20036;-84
2023/03/11 16:27:54;;;;;;;2.53;1.00;;;;;;;5.58;45.51;99279.91;12199476;19;20021;-83
2023/03/11 16:31:55;;;;;;;5.63;1.20;;;;;;;5.53;45.33;99293.41;12217119;19;20003;-83
2023/03/11 16:35:57;;;;;;;4.68;1.67;;;;;;;5.47;45.71;99292.47;12210057;19;20038;-80
2023/03/11 16:39:59;;;;;;;3.22;1.00;;;;;;;5.53;45.99;99292.59;12193073;19;20054;-81
2023/03/11 16:44:01;;;;;;;4.20;1.23;;;;;;;5.48;46.01;99306.97;12212436;19;20365;-81
2023/03/11 16:48:04;;;;;;;4.75;1.35;;;;;;;5.38;45.60;99310.22;12216828;19;19999;-82
2023/03/11 16:52:06;;;;;;;2.67;1.20;;;;;;;5.32;45.79;99316.59;12191305;19;20081;-81
2023/03/11 16:56:07;;;;;;;4.43;0.90;;;;;;;5.19;46.17;99320.31;12206199;19;20401;-82
2023/03/11 17:00:10;;;;;;;5.45;1.60;;;;;;;5.03;46.63;99324.47;12213078;19;20006;-82
2023/03/11 17:04:12;;;;;;;5.90;1.30;;;;;;;4.98;46.58;99320.75;12191968;19;20015;-83
2023/03/11 17:08:16;;;;;;;2.97;1.08;;;;;;;4.89;46.57;99328.41;12213886;19;20006;-81
2023/03/11 17:12:19;;;;;;;2.67;1.20;;;;;;;4.66;47.38;99328.19;12202518;19;20018;-82
2023/03/11 17:16:21;;;;;;;3.00;1.10;;;;;;;4.43;48.91;99321.47;12199800;19;20039;-81
2023/03/11 17:20:23;;;;;;;1.73;1.00;;;;;;;4.22;50.56;99338.16;12203497;19;21043;-81
2023/03/11 17:24:25;;;;;;;8.53;1.40;;;;;;;3.98;52.12;99337.06;12180427;19;20466;-81
2023/03/11 17:28:27;;;;;;;2.83;1.13;;;;;;;3.75;53.83;99343.03;12199706;19;20082;-81
2023/03/11 17:32:29;;;;;;;7.20;1.60;;;;;;;3.55;55.41;99354.88;12205828;19;20011;-81
2023/03/11 17:36:31;;;;;;;5.85;1.92;;;;;;;3.33;56.48;99356.19;12185393;19;20015;-81
2023/03/11 17:40:32;;;;;;;9.02;2.70;;;;;;;3.08;57.84;99351.44;12205209;19;20468;-83
2023/03/11 17:44:36;;;;;;;6.43;2.38;;;;;;;2.85;59.06;99351.06;12205916;19;20034;-82
2023/03/11 17:48:53;;;;;;;5.10;1.80;;;;;;;2.66;59.51;99358.19;12187077;19;20010;-83
2023/03/11 17:52:55;;;;;;;4.93;1.33;;;;;;;2.47;60.44;99360.72;12213767;19;20006;-82
2023/03/11 17:56:57;;;;;;;7.55;1.50;;;;;;;2.31;61.15;99365.72;12214013;19;20488;-83
2023/03/11 18:01:03;;;;;;;3.78;1.40;;;;;;;2.14;62.02;99352.53;12196797;19;20014;-82
2023/03/11 18:05:05;;;;;;;2.83;1.40;;;;;;;1.98;62.72;99369.19;12215611;19;20003;-82
2023/03/11 18:09:07;;;;;;;4.03;1.10;;;;;;;1.89;64.09;99384.00;12217584;19;20454;-83
2023/03/11 18:13:08;;;;;;;4.93;1.55;;;;;;;1.78;64.85;99380.81;12234303;19;20027;-83
2023/03/11 18:17:11;;;;;;;5.43;2.50;;;;;;;1.69;65.54;99390.19;12227898;19;20034;-82
2023/03/11 18:21:17;;;;;;;3.63;1.40;;;;;;;1.57;65.98;99391.81;12224662;19;20065;-83
2023/03/11 18:25:18;;;;;;;4.90;1.65;;;;;;;1.44;66.88;99383.63;12203670;19;20002;-81
2023/03/11 18:29:20;;;;;;;5.53;1.65;;;;;;;1.41;67.82;99389.47;12219596;19;21282;-83
2023/03/11 18:33:23;;;;;;;4.97;1.40;;;;;;;1.35;67.84;99397.34;12196954;19;20006;-82
2023/03/11 18:37:25;;;;;;;;;;;;;;;1.27;68.52;99404.81;12226722;19;20048;-83
2023/03/11 18:41:30;;;;;;;1.83;1.23;;;;;;;1.20;68.21;99406.66;12224278;19;19978;-82
2023/03/11 18:45:32;;;;;;;5.50;2.00;;;;;;;1.15;69.30;99412.69;12197981;19;20026;-82
2023/03/11 18:49:34;;;;;;;3.20;1.40;;;;;;;1.13;69.19;99409.31;12219964;19;20030;-82
2023/03/11 18:53:36;;;;;;;5.18;1.13;;;;;;;1.09;69.30;99398.03;12215651;19;20082;-82
2023/03/11 18:57:40;;;;;;;3.30;1.08;;;;;;;1.07;70.26;99396.53;12195537;19;20051;-82
2023/03/11 19:01:42;;;;;;;4.78;1.27;;;;;;;1.03;70.37;99398.00;12209886;19;20123;-82
2023/03/11 19:05:48;;;;;;;3.50;1.20;;;;;;;0.99;70.75;99400.28;12217209;19;20046;-82
2023/03/11 19:09:51;;;;;;;5.85;1.35;;;;;;;0.94;71.31;99399.19;12196309;19;20021;-82
2023/03/11 19:13:53;;;;;;;4.03;1.33;;;;;;;0.93;71.69;99401.06;12228313;19;20014;-82
2023/03/11 19:17:54;;;;;;;4.30;1.23;;;;;;;0.87;71.94;99394.53;12267359;19;19994;-83